createdAt,value
2019-02-23T00:00:43.038Z,20.02
2019-02-23T00:03:11.675Z,18.65
2019-02-23T00:05:40.155Z,19.98
2019-02-23T00:08:08.702Z,17.45
2019-02-23T00:10:37.834Z,20.70
2019-02-23T00:13:06.342Z,20.82
2019-02-23T00:15:34.933Z,20.27
2019-02-23T00:18:03.550Z,19.48
2019-02-23T00:20:32.045Z,18.25
2019-02-23T00:23:00.458Z,17.70
2019-02-23T00:25:28.875Z,19.65
2019-02-23T00:27:57.526Z,20.57
2019-02-23T00:30:26.014Z,17.65
2019-02-23T00:32:54.463Z,18.67
2019-02-23T00:35:22.922Z,17.65
2019-02-23T00:37:52.734Z,17.98
2019-02-23T00:40:21.407Z,17.77
2019-02-23T00:42:49.889Z,17.80
2019-02-23T00:45:18.415Z,18.15
2019-02-23T00:47:46.843Z,18.57
2019-02-23T00:50:16.036Z,17.52
2019-02-23T00:52:45.282Z,16.20
2019-02-23T00:55:13.740Z,17.57
2019-02-23T00:57:42.202Z,15.95
2019-02-23T01:00:13.137Z,18.67
2019-02-23T01:02:41.581Z,17.35
2019-02-23T01:05:10.118Z,15.70
2019-02-23T01:07:38.889Z,15.90
2019-02-23T01:10:09.923Z,14.98
2019-02-23T01:12:38.462Z,16.75
2019-02-23T01:15:10.669Z,14.05
2019-02-23T01:17:39.104Z,15.20
2019-02-23T01:20:09.681Z,14.70
2019-02-23T01:22:38.763Z,18.42
2019-02-23T01:25:07.461Z,17.25
2019-02-23T01:27:35.962Z,16.85
2019-02-23T01:30:06.988Z,18.05
2019-02-23T01:32:35.392Z,16.00
2019-02-23T01:35:04.549Z,17.60
2019-02-23T01:37:33.271Z,18.20
2019-02-23T01:40:01.689Z,18.48
2019-02-23T01:42:30.192Z,16.37
2019-02-23T01:44:59.202Z,21.00
2019-02-23T01:47:29.074Z,16.70
2019-02-23T01:49:59.162Z,16.85
2019-02-23T01:52:38.078Z,19.67
2019-02-23T01:55:07.202Z,15.65
2019-02-23T01:57:35.693Z,17.00
2019-02-23T02:00:12.684Z,19.87
2019-02-23T02:03:01.998Z,14.95
2019-02-23T02:05:31.602Z,15.83
2019-02-23T02:08:00.249Z,18.42
2019-02-23T02:10:50.821Z,16.23
2019-02-23T02:13:19.477Z,16.95
2019-02-23T02:15:48.425Z,19.10
2019-02-23T02:18:19.584Z,18.45
2019-02-23T02:20:48.181Z,14.85
2019-02-23T02:23:16.783Z,19.40
2019-02-23T02:25:51.070Z,18.50
2019-02-23T02:28:19.530Z,18.37
2019-02-23T02:30:47.971Z,19.12
2019-02-23T02:33:17.374Z,18.85
2019-02-23T02:35:47.102Z,17.70
2019-02-23T02:38:15.822Z,17.50
2019-02-23T02:40:44.427Z,15.88
2019-02-23T02:43:12.834Z,16.50
2019-02-23T02:45:41.245Z,14.00
2019-02-23T02:48:09.788Z,14.40
2019-02-23T02:50:38.190Z,13.93
2019-02-23T02:53:06.689Z,14.98
2019-02-23T02:55:35.461Z,13.40
2019-02-23T02:58:04.824Z,12.70
2019-02-23T03:00:33.322Z,11.73
2019-02-23T03:03:01.918Z,11.75
2019-02-23T03:05:30.350Z,13.13
2019-02-23T03:07:58.781Z,11.20
2019-02-23T03:10:27.456Z,12.20
2019-02-23T03:12:55.916Z,11.97
2019-02-23T03:15:24.326Z,13.20
2019-02-23T03:17:53.019Z,12.40
2019-02-23T03:20:21.497Z,12.73
2019-02-23T03:22:49.927Z,13.03
2019-02-23T03:25:18.511Z,13.83
2019-02-23T03:27:51.906Z,14.50
2019-02-23T03:30:20.607Z,13.90
2019-02-23T03:32:50.195Z,12.50
2019-02-23T03:35:18.896Z,13.00
2019-02-23T03:37:47.952Z,13.10
2019-02-23T03:40:16.427Z,13.05
2019-02-23T03:42:44.883Z,13.50
2019-02-23T03:45:13.606Z,16.52
2019-02-23T03:47:42.073Z,12.18
2019-02-23T03:50:10.721Z,14.90
2019-02-23T03:52:39.456Z,12.65
2019-02-23T03:55:08.045Z,14.25
2019-02-23T03:57:36.488Z,12.95
2019-02-23T04:00:07.212Z,15.80
2019-02-23T04:02:35.721Z,12.90
2019-02-23T04:05:04.402Z,15.35
2019-02-23T04:07:33.832Z,12.82
2019-02-23T04:10:02.349Z,14.18
2019-02-23T04:12:30.807Z,15.50
2019-02-23T04:14:59.518Z,15.43
2019-02-23T04:17:30.921Z,12.85
2019-02-23T04:19:59.602Z,13.30
2019-02-23T04:22:28.443Z,13.93
2019-02-23T04:24:56.963Z,13.30
2019-02-23T04:27:25.450Z,14.25
2019-02-23T04:29:54.043Z,13.95
2019-02-23T04:32:22.532Z,14.35
2019-02-23T04:34:50.956Z,14.38
2019-02-23T04:37:20.025Z,13.75
2019-02-23T04:39:48.494Z,13.55
2019-02-23T04:42:16.947Z,13.30
2019-02-23T04:47:20.255Z,15.05
2019-02-23T04:49:55.978Z,14.55
2019-02-23T04:52:24.621Z,15.38
2019-02-23T04:54:53.534Z,14.18
2019-02-23T04:57:22.322Z,15.03
2019-02-23T04:59:51.691Z,14.13
2019-02-23T05:02:20.544Z,13.48
2019-02-23T05:04:48.982Z,15.18
2019-02-23T05:07:19.204Z,14.80
2019-02-23T05:09:47.630Z,13.88
2019-02-23T05:12:16.109Z,13.10
2019-02-23T05:14:44.949Z,14.87
2019-02-23T05:17:13.448Z,14.35
2019-02-23T05:19:42.584Z,15.13
2019-02-23T05:22:11.308Z,15.78
2019-02-23T05:24:39.733Z,14.13
2019-02-23T05:27:08.170Z,14.98
2019-02-23T05:29:37.269Z,14.18
2019-02-23T05:32:06.334Z,14.50
2019-02-23T05:34:35.729Z,15.98
2019-02-23T05:37:04.325Z,14.75
2019-02-23T05:39:32.742Z,16.97
2019-02-23T05:42:01.430Z,15.93
2019-02-23T05:44:30.310Z,16.15
2019-02-23T05:46:58.736Z,13.90
2019-02-23T05:49:27.146Z,17.15
2019-02-23T05:51:55.842Z,15.93
2019-02-23T05:54:24.283Z,16.32
2019-02-23T05:56:53.665Z,17.37
2019-02-23T05:59:22.099Z,16.12
2019-02-23T06:01:52.862Z,17.05
2019-02-23T06:04:21.313Z,14.68
2019-02-23T06:06:49.896Z,15.90
2019-02-23T06:09:18.876Z,17.85
2019-02-23T06:11:47.383Z,17.20
2019-02-23T06:14:15.934Z,15.05
2019-02-23T06:16:45.314Z,15.25
2019-02-23T06:19:13.795Z,15.70
2019-02-23T06:21:53.048Z,14.75
2019-02-23T06:24:13.609Z,15.70
2019-02-23T06:26:42.199Z,14.83
2019-02-23T06:29:10.614Z,16.12
2019-02-23T06:31:39.491Z,14.30
2019-02-23T06:34:16.054Z,14.73
2019-02-23T06:36:41.574Z,12.55
2019-02-23T06:39:13.031Z,14.13
2019-02-23T06:41:43.090Z,13.55
2019-02-23T06:44:11.630Z,13.03
2019-02-23T06:46:42.163Z,12.65
2019-02-23T06:49:10.587Z,13.48
2019-02-23T06:51:39.241Z,13.18
2019-02-23T06:54:08.781Z,20.17
2019-02-23T06:56:37.214Z,14.55
2019-02-23T06:59:05.723Z,11.70
2019-02-23T07:01:34.800Z,13.00
2019-02-23T07:04:03.207Z,12.35
2019-02-23T07:06:31.723Z,13.13
2019-02-23T07:09:01.031Z,11.35
2019-02-23T07:11:29.453Z,12.03
2019-02-23T07:13:58.026Z,13.00
2019-02-23T07:16:27.389Z,13.40
2019-02-23T07:18:55.896Z,14.53
2019-02-23T07:21:24.314Z,10.75
2019-02-23T07:23:59.073Z,16.97
2019-02-23T07:26:27.502Z,12.95
2019-02-23T07:28:55.956Z,11.68
2019-02-23T07:31:24.743Z,11.03
2019-02-23T07:33:53.162Z,11.03
2019-02-23T07:36:21.612Z,10.78
2019-02-23T07:38:50.906Z,13.38
2019-02-23T07:41:20.206Z,11.25
2019-02-23T07:43:48.626Z,11.25
2019-02-23T07:46:17.558Z,12.55
2019-02-23T07:48:45.984Z,10.05
2019-02-23T07:51:14.433Z,10.43
2019-02-23T07:53:43.121Z,11.35
2019-02-23T07:56:13.222Z,13.08
2019-02-23T07:58:42.402Z,10.90
2019-02-23T08:01:11.521Z,11.78
2019-02-23T08:03:39.984Z,11.33
2019-02-23T08:06:14.972Z,12.28
2019-02-23T08:08:43.402Z,9.80
2019-02-23T08:11:11.809Z,10.43
2019-02-23T08:13:40.814Z,9.95
2019-02-23T08:16:09.546Z,9.93
2019-02-23T08:18:39.353Z,11.00
2019-02-23T08:21:08.707Z,9.55
2019-02-23T08:23:38.433Z,11.48
2019-02-23T08:26:06.881Z,12.13
2019-02-23T08:28:35.986Z,11.10
2019-02-23T08:31:04.461Z,10.50
2019-02-23T08:33:32.926Z,10.08
2019-02-23T08:36:03.171Z,11.03
2019-02-23T08:38:31.634Z,12.33
2019-02-23T08:41:00.086Z,10.53
2019-02-23T08:43:30.212Z,10.40
2019-02-23T08:45:58.791Z,10.90
2019-02-23T08:48:27.326Z,10.35
2019-02-23T08:50:56.092Z,10.40
2019-02-23T08:53:26.073Z,9.30
2019-02-23T08:55:54.674Z,9.25
2019-02-23T08:58:23.542Z,10.78
2019-02-23T09:00:52.019Z,10.45
2019-02-23T09:03:20.478Z,10.25
2019-02-23T09:05:50.777Z,10.40
2019-02-23T09:08:19.374Z,9.48
2019-02-23T09:10:47.824Z,9.88
2019-02-23T09:13:16.907Z,9.70
2019-02-23T09:15:45.370Z,10.58
2019-02-23T09:18:14.345Z,10.75
2019-02-23T09:20:43.403Z,9.25
2019-02-23T09:23:11.843Z,11.08
2019-02-23T09:25:40.288Z,10.23
2019-02-23T09:28:08.737Z,11.05
2019-02-23T09:30:37.159Z,15.48
2019-02-23T09:33:06.744Z,9.33
2019-02-23T09:35:36.840Z,11.50
2019-02-23T09:38:05.430Z,10.72
2019-02-23T09:40:39.199Z,10.03
2019-02-23T09:43:07.623Z,11.22
2019-02-23T09:45:37.607Z,10.98
2019-02-23T09:48:07.998Z,10.75
2019-02-23T09:50:36.437Z,9.95
2019-02-23T09:53:11.265Z,10.20
2019-02-23T09:55:38.457Z,10.23
2019-02-23T09:58:06.877Z,11.80
2019-02-23T10:00:35.363Z,11.22
2019-02-23T10:03:04.514Z,11.05
2019-02-23T10:05:33.025Z,10.55
2019-02-23T10:08:02.970Z,10.43
2019-02-23T10:10:34.472Z,10.68
2019-02-23T10:13:03.144Z,11.35
2019-02-23T10:15:31.564Z,9.75
2019-02-23T10:18:00.619Z,11.15
2019-02-23T10:20:29.286Z,9.48
2019-02-23T10:22:58.880Z,11.28
2019-02-23T10:25:30.946Z,9.95
2019-02-23T10:27:59.427Z,9.60
2019-02-23T10:30:27.900Z,11.22
2019-02-23T10:32:56.484Z,10.75
2019-02-23T10:35:25.612Z,9.20
2019-02-23T10:37:54.024Z,10.25
2019-02-23T10:40:23.239Z,10.13
2019-02-23T10:42:51.672Z,10.58
2019-02-23T10:45:20.109Z,9.70
2019-02-23T10:47:50.238Z,9.08
2019-02-23T10:50:19.021Z,9.10
2019-02-23T10:52:47.441Z,10.23
2019-02-23T10:55:16.393Z,9.05
2019-02-23T10:57:44.797Z,11.57
2019-02-23T11:00:19.881Z,9.28
2019-02-23T11:02:48.622Z,9.90
2019-02-23T11:05:17.962Z,10.82
2019-02-23T11:07:46.637Z,10.32
2019-02-23T11:10:15.201Z,10.70
2019-02-23T11:12:43.854Z,10.88
2019-02-23T11:15:14.529Z,9.18
2019-02-23T11:17:43.006Z,10.00
2019-02-23T11:20:12.261Z,10.32
2019-02-23T11:22:40.876Z,10.88
2019-02-23T11:25:12.530Z,10.72
2019-02-23T11:27:40.954Z,10.60
2019-02-23T11:30:12.319Z,7.85
2019-02-23T11:32:40.810Z,9.65
2019-02-23T11:35:12.157Z,7.95
2019-02-23T11:37:40.847Z,8.75
2019-02-23T11:40:11.509Z,8.80
2019-02-23T11:42:39.921Z,9.33
2019-02-23T11:45:10.575Z,9.50
2019-02-23T11:47:40.526Z,9.00
2019-02-23T11:50:13.394Z,8.68
2019-02-23T11:52:41.946Z,8.60
2019-02-23T11:55:10.465Z,8.25
2019-02-23T11:57:39.235Z,8.35
2019-02-23T12:00:10.707Z,8.43
2019-02-23T12:02:39.193Z,8.78
2019-02-23T12:05:09.039Z,7.95
2019-02-23T12:07:38.793Z,7.78
2019-02-23T12:10:10.357Z,8.05
2019-02-23T12:12:39.331Z,7.70
2019-02-23T12:15:08.885Z,9.73
2019-02-23T12:17:37.339Z,11.08
2019-02-23T12:20:11.687Z,7.50
2019-02-23T12:22:40.170Z,7.20
2019-02-23T12:25:09.024Z,6.15
2019-02-23T12:27:37.632Z,7.05
2019-02-23T12:30:08.614Z,8.60
2019-02-23T12:32:37.429Z,6.73
2019-02-23T12:35:08.923Z,6.35
2019-02-23T12:37:37.407Z,7.40
2019-02-23T12:40:08.536Z,5.78
2019-02-23T12:42:37.309Z,5.47
2019-02-23T12:45:08.947Z,7.08
2019-02-23T12:47:37.660Z,6.45
2019-02-23T12:50:09.832Z,7.25
2019-02-23T12:52:38.810Z,6.80
2019-02-23T12:55:09.529Z,7.78
2019-02-23T12:57:38.143Z,8.45
2019-02-23T13:00:12.522Z,7.70
2019-02-23T13:02:41.271Z,7.60
2019-02-23T13:05:09.878Z,6.58
2019-02-23T13:07:38.331Z,6.70
2019-02-23T13:10:11.396Z,7.17
2019-02-23T13:12:55.305Z,6.85
2019-02-23T13:15:27.142Z,6.85
2019-02-23T13:18:25.812Z,6.75
2019-02-23T13:21:20.054Z,7.10
2019-02-23T13:23:57.203Z,7.97
2019-02-23T13:26:37.608Z,7.30
2019-02-23T13:29:18.049Z,7.05
2019-02-23T13:32:24.588Z,6.22
2019-02-23T13:35:31.885Z,6.90
2019-02-23T13:38:15.480Z,7.72
2019-02-23T13:41:12.558Z,8.30
2019-02-23T13:43:52.913Z,6.67
2019-02-23T13:46:30.558Z,6.80
2019-02-23T13:49:05.252Z,6.72
2019-02-23T13:51:45.210Z,7.55
2019-02-23T13:54:38.884Z,7.12
2019-02-23T13:57:30.897Z,6.95
2019-02-23T14:00:20.669Z,6.83
2019-02-23T14:02:54.788Z,5.40
2019-02-23T14:05:46.681Z,5.97
2019-02-23T14:08:40.763Z,6.08
2019-02-23T14:11:15.841Z,6.72
2019-02-23T14:13:56.059Z,6.70
2019-02-23T14:16:33.582Z,6.60
2019-02-23T14:19:13.688Z,6.53
2019-02-23T14:21:54.430Z,6.58
2019-02-23T14:24:32.097Z,6.30
2019-02-23T14:27:09.323Z,6.28
2019-02-23T14:29:43.875Z,6.92
2019-02-23T14:32:38.395Z,6.67
2019-02-23T14:35:25.139Z,7.00
2019-02-23T14:37:56.963Z,6.65
2019-02-23T14:40:39.299Z,6.22
2019-02-23T14:43:14.821Z,6.60
2019-02-23T14:45:59.876Z,6.42
2019-02-23T14:48:46.532Z,6.87
2019-02-23T14:51:46.495Z,6.87
2019-02-23T14:54:24.167Z,7.47
2019-02-23T14:57:27.653Z,6.92
2019-02-23T15:00:21.826Z,7.15
2019-02-23T15:02:55.399Z,6.17
2019-02-23T15:05:29.892Z,6.37
2019-02-23T15:08:19.738Z,7.17
2019-02-23T15:10:51.311Z,5.92
2019-02-23T15:13:29.364Z,6.53
2019-02-23T15:16:21.952Z,5.78
2019-02-23T15:19:05.842Z,6.20
2019-02-23T15:21:46.068Z,5.20
2019-02-23T15:24:36.532Z,8.40
2019-02-23T15:27:35.004Z,6.40
2019-02-23T15:30:09.570Z,7.05
2019-02-23T15:32:47.140Z,26.25
2019-02-23T15:35:39.074Z,4.22
2019-02-23T15:38:28.682Z,4.80
2019-02-23T15:41:13.389Z,6.85
2019-02-23T15:44:04.782Z,6.45
2019-02-23T15:46:56.586Z,6.77
2019-02-23T15:49:32.190Z,6.42
2019-02-23T15:52:02.567Z,6.50
2019-02-23T15:54:31.145Z,6.70
2019-02-23T15:56:59.724Z,6.50
2019-02-23T15:59:28.590Z,6.10
2019-02-23T16:01:57.019Z,6.20
2019-02-23T16:04:25.985Z,6.20
2019-02-23T16:06:54.616Z,6.25
2019-02-23T16:09:23.083Z,6.28
2019-02-23T16:11:51.510Z,7.55
2019-02-23T16:14:20.436Z,7.05
2019-02-23T16:16:48.950Z,6.50
2019-02-23T16:19:17.375Z,6.33
2019-02-23T16:21:46.641Z,6.67
2019-02-23T16:24:15.074Z,6.10
2019-02-23T16:26:43.562Z,8.15
2019-02-23T16:29:12.439Z,6.72
2019-02-23T16:31:40.969Z,7.67
2019-02-23T16:34:09.498Z,6.53
2019-02-23T16:36:38.103Z,7.12
2019-02-23T16:39:09.940Z,6.80
2019-02-23T16:41:41.157Z,6.45
2019-02-23T16:44:09.736Z,7.10
2019-02-23T16:46:39.815Z,6.42
2019-02-23T16:49:09.297Z,6.97
2019-02-23T16:51:39.366Z,5.97
2019-02-23T16:54:08.805Z,6.03
2019-02-23T16:56:37.381Z,6.10
2019-02-23T16:59:07.323Z,6.25
2019-02-23T17:01:35.749Z,6.70
2019-02-23T17:04:05.830Z,6.28
2019-02-23T17:06:34.255Z,6.33
2019-02-23T17:09:02.799Z,6.62
2019-02-23T17:11:31.763Z,7.12
2019-02-23T17:14:00.709Z,7.20
2019-02-23T17:16:31.746Z,6.42
2019-02-23T17:19:00.884Z,7.13
2019-02-23T17:21:31.387Z,7.25
2019-02-23T17:24:00.160Z,9.03
2019-02-23T17:26:28.775Z,8.85
2019-02-23T17:28:57.258Z,7.72
2019-02-23T17:31:27.416Z,6.92
2019-02-23T17:33:56.551Z,7.47
2019-02-23T17:36:25.018Z,6.40
2019-02-23T17:38:54.998Z,7.65
2019-02-23T17:41:23.408Z,6.28
2019-02-23T17:43:54.161Z,6.83
2019-02-23T17:46:22.744Z,6.97
2019-02-23T17:48:51.171Z,8.00
2019-02-23T17:51:33.479Z,6.80
2019-02-23T17:54:03.287Z,6.80
2019-02-23T17:56:31.996Z,7.50
2019-02-23T17:59:00.626Z,7.22
2019-02-23T18:01:29.773Z,7.28
2019-02-23T18:03:59.016Z,6.72
2019-02-23T18:06:28.003Z,7.50
2019-02-23T18:08:58.583Z,7.60
2019-02-23T18:11:30.745Z,8.03
2019-02-23T18:13:59.296Z,7.33
2019-02-23T18:16:27.820Z,12.78
2019-02-23T18:18:57.596Z,8.65
2019-02-23T18:21:26.162Z,8.20
2019-02-23T18:23:54.616Z,8.55
2019-02-23T18:26:24.726Z,7.85
2019-02-23T18:28:53.135Z,8.30
2019-02-23T18:31:21.820Z,8.35
2019-02-23T18:33:50.888Z,8.73
2019-02-23T18:36:20.708Z,7.58
2019-02-23T18:38:49.251Z,8.60
2019-02-23T18:41:18.293Z,9.73
2019-02-23T18:43:46.751Z,8.33
2019-02-23T18:46:15.246Z,8.95
2019-02-23T18:48:43.832Z,8.40
2019-02-23T18:51:13.162Z,8.80
2019-02-23T18:53:41.695Z,7.83
2019-02-23T18:56:10.937Z,9.55
2019-02-23T18:58:39.394Z,8.23
2019-02-23T19:01:07.973Z,8.93
2019-02-23T19:03:37.187Z,8.43
2019-02-23T19:06:05.720Z,8.28
2019-02-23T19:08:34.221Z,11.53
2019-02-23T19:11:02.741Z,9.28
2019-02-23T19:13:31.494Z,9.20
2019-02-23T19:15:59.950Z,9.18
2019-02-23T19:18:29.620Z,9.63
2019-02-23T19:20:58.520Z,9.38
2019-02-23T19:23:27.055Z,9.03
2019-02-23T19:25:55.496Z,9.13
2019-02-23T19:28:24.539Z,14.87
2019-02-23T19:30:53.052Z,9.85
2019-02-23T19:33:21.466Z,7.42
2019-02-23T19:35:50.102Z,10.35
2019-02-23T19:38:19.339Z,8.98
2019-02-23T19:40:47.772Z,10.08
2019-02-23T19:43:16.254Z,9.53
2019-02-23T19:45:45.387Z,9.58
2019-02-23T19:48:13.834Z,9.65
2019-02-23T19:50:46.164Z,9.53
2019-02-23T19:53:14.719Z,10.40
2019-02-23T19:55:43.198Z,10.00
2019-02-23T19:58:12.310Z,9.88
2019-02-23T20:00:40.756Z,9.00
2019-02-23T20:03:09.197Z,9.53
2019-02-23T20:05:38.208Z,9.75
2019-02-23T20:08:07.135Z,9.55
2019-02-23T20:10:35.642Z,9.18
2019-02-23T20:13:04.687Z,9.83
2019-02-23T20:15:34.005Z,10.10
2019-02-23T20:18:02.499Z,8.93
2019-02-23T20:20:32.655Z,9.53
2019-02-23T20:23:01.174Z,10.55
2019-02-23T20:25:29.658Z,9.65
2019-02-23T20:27:58.779Z,10.98
2019-02-23T20:30:27.457Z,9.93
2019-02-23T20:32:55.984Z,8.70
2019-02-23T20:35:24.895Z,9.10
2019-02-23T20:37:53.405Z,10.90
2019-02-23T20:40:21.926Z,9.70
2019-02-23T20:42:50.379Z,9.18
2019-02-23T20:45:19.230Z,11.22
2019-02-23T20:47:47.735Z,9.15
2019-02-23T20:50:16.373Z,9.28
2019-02-23T20:52:45.007Z,9.78
2019-02-23T20:55:13.538Z,10.53
2019-02-23T20:57:41.966Z,10.30
2019-02-23T21:00:12.301Z,10.23
2019-02-23T21:02:40.763Z,10.25
2019-02-23T21:05:13.261Z,9.65
2019-02-23T21:07:41.679Z,9.63
2019-02-23T21:10:10.812Z,9.80
2019-02-23T21:12:39.442Z,10.18
2019-02-23T21:15:10.109Z,10.00
2019-02-23T21:17:40.247Z,10.65
2019-02-23T21:20:10.442Z,10.08
2019-02-23T21:22:38.918Z,10.23
2019-02-23T21:25:09.318Z,9.73
2019-02-23T21:27:38.039Z,9.73
2019-02-23T21:30:10.969Z,10.13
2019-02-23T21:32:39.864Z,9.80
2019-02-23T21:35:09.021Z,9.40
2019-02-23T21:37:37.637Z,10.18
2019-02-23T21:40:08.525Z,9.88
2019-02-23T21:42:36.974Z,10.65
2019-02-23T21:45:08.858Z,11.10
2019-02-23T21:47:37.408Z,11.03
2019-02-23T21:52:42.842Z,10.10
2019-02-23T21:55:11.408Z,10.70
2019-02-23T21:57:42.591Z,10.53
2019-02-23T22:00:12.843Z,11.40
2019-02-23T22:02:41.347Z,11.75
2019-02-23T22:05:13.293Z,10.05
2019-02-23T22:07:41.713Z,10.70
2019-02-23T22:10:10.275Z,11.00
2019-02-23T22:12:40.007Z,11.57
2019-02-23T22:15:08.590Z,9.58
2019-02-23T22:17:37.333Z,10.45
2019-02-23T22:20:07.521Z,9.80
2019-02-23T22:22:36.033Z,9.30
2019-02-23T22:25:06.439Z,11.00
2019-02-23T22:27:35.105Z,10.32
2019-02-23T22:30:03.627Z,12.20
2019-02-23T22:32:32.087Z,10.48
2019-02-23T22:35:01.827Z,10.98
2019-02-23T22:37:30.284Z,9.73
2019-02-23T22:39:58.789Z,10.03
2019-02-23T22:42:27.446Z,9.33
2019-02-23T22:44:55.854Z,11.10
2019-02-23T22:47:24.303Z,10.15
2019-02-23T22:49:53.029Z,10.65
2019-02-23T22:52:21.454Z,11.22
2019-02-23T22:54:49.932Z,10.72
2019-02-23T22:57:18.782Z,11.68
2019-02-23T22:59:47.306Z,9.80
2019-02-23T23:02:15.853Z,10.08
2019-02-23T23:04:44.641Z,8.53
2019-02-23T23:07:13.171Z,10.10
2019-02-23T23:09:41.616Z,10.55
2019-02-23T23:12:10.336Z,9.18
2019-02-23T23:14:38.794Z,10.68
2019-02-23T23:17:07.295Z,9.73
2019-02-23T23:19:36.256Z,10.13
2019-02-23T23:22:04.935Z,10.53
2019-02-23T23:24:33.407Z,10.20
2019-02-23T23:27:01.894Z,10.68
2019-02-23T23:29:31.315Z,9.68
2019-02-23T23:31:59.741Z,10.20
2019-02-23T23:34:28.152Z,9.53
2019-02-23T23:37:09.129Z,9.00
2019-02-23T23:39:39.574Z,10.40
2019-02-23T23:42:09.399Z,9.10
2019-02-23T23:44:38.766Z,10.90
2019-02-23T23:47:07.313Z,10.10
2019-02-23T23:49:35.896Z,10.30
2019-02-23T23:52:06.282Z,10.80
2019-02-23T23:54:35.470Z,9.45
2019-02-23T23:57:04.256Z,10.25
2019-02-23T23:59:35.183Z,9.53
